createdAt,value
2022-11-09T00:02:35.292Z,87.45
2022-11-09T00:05:39.142Z,87.32
2022-11-09T00:08:42.491Z,86.81
2022-11-09T00:11:45.603Z,87.12
2022-11-09T00:14:48.061Z,87.22
2022-11-09T00:17:51.165Z,87.14
2022-11-09T00:20:54.261Z,87.31
2022-11-09T00:23:58.327Z,87.27
2022-11-09T00:27:00.860Z,87.25
2022-11-09T00:30:05.300Z,87.26
2022-11-09T00:33:08.843Z,87.48
2022-11-09T00:36:14.260Z,87.68
2022-11-09T00:39:16.834Z,87.39
2022-11-09T00:42:19.916Z,87.48
2022-11-09T00:45:22.823Z,87.52
2022-11-09T00:48:26.470Z,87.48
2022-11-09T00:51:28.912Z,87.69
2022-11-09T00:54:32.182Z,87.57
2022-11-09T00:57:34.775Z,87.70
2022-11-09T01:00:38.471Z,87.68
2022-11-09T01:03:41.445Z,87.81
2022-11-09T01:06:44.656Z,87.67
2022-11-09T01:09:47.264Z,87.94
2022-11-09T01:12:51.174Z,87.83
2022-11-09T01:15:54.076Z,88.14
2022-11-09T01:18:58.872Z,88.15
2022-11-09T01:22:01.375Z,88.10
2022-11-09T01:25:04.976Z,88.04
2022-11-09T01:28:08.385Z,88.10
2022-11-09T01:31:14.701Z,88.13
2022-11-09T01:34:17.683Z,87.97
2022-11-09T01:37:21.056Z,87.88
2022-11-09T01:40:23.682Z,87.94
2022-11-09T01:43:27.836Z,88.17
2022-11-09T01:47:20.937Z,87.82
2022-11-09T01:51:02.081Z,88.27
2022-11-09T01:54:10.705Z,88.32
2022-11-09T01:57:26.274Z,88.46
2022-11-09T02:00:30.004Z,88.11
2022-11-09T02:03:38.059Z,88.63
2022-11-09T02:06:41.028Z,88.57
2022-11-09T02:09:55.962Z,88.58
2022-11-09T02:12:59.723Z,88.34
2022-11-09T02:16:06.726Z,88.24
2022-11-09T02:19:09.961Z,88.19
2022-11-09T02:22:12.798Z,87.84
2022-11-09T02:25:16.462Z,88.19
2022-11-09T02:28:19.955Z,88.55
2022-11-09T02:31:28.011Z,88.27
2022-11-09T02:34:31.184Z,88.25
2022-11-09T02:37:44.693Z,88.46
2022-11-09T02:40:52.033Z,87.98
2022-11-09T02:43:55.320Z,88.25
2022-11-09T02:46:58.176Z,88.46
2022-11-09T02:50:01.913Z,88.57
2022-11-09T02:53:04.782Z,88.19
2022-11-09T02:56:08.793Z,88.24
2022-11-09T02:59:11.498Z,88.12
2022-11-09T03:02:15.779Z,88.29
2022-11-09T03:05:18.638Z,88.45
2022-11-09T03:08:22.003Z,88.33
2022-11-09T03:11:26.712Z,87.97
2022-11-09T03:14:29.607Z,88.19
2022-11-09T03:17:33.191Z,88.03
2022-11-09T03:20:36.211Z,88.43
2022-11-09T03:23:39.038Z,88.41
2022-11-09T03:26:42.779Z,87.91
2022-11-09T03:29:46.425Z,88.24
2022-11-09T03:32:50.850Z,88.33
2022-11-09T03:35:54.141Z,87.84
2022-11-09T03:38:58.262Z,88.26
2022-11-09T03:42:01.536Z,88.11
2022-11-09T03:45:04.521Z,88.23
2022-11-09T03:48:07.428Z,88.14
2022-11-09T03:51:10.240Z,88.21
2022-11-09T03:54:13.229Z,88.15
2022-11-09T03:57:16.012Z,88.25
2022-11-09T04:00:21.438Z,87.82
2022-11-09T04:03:25.098Z,88.11
2022-11-09T04:06:27.928Z,88.08
2022-11-09T04:09:30.884Z,88.23
2022-11-09T04:12:33.639Z,88.64
2022-11-09T04:15:36.491Z,88.22
2022-11-09T04:18:39.400Z,88.23
2022-11-09T04:21:42.210Z,88.32
2022-11-09T04:24:45.282Z,88.37
2022-11-09T04:27:48.078Z,88.49
2022-11-09T04:30:50.955Z,88.41
2022-11-09T04:33:53.720Z,88.34
2022-11-09T04:36:56.511Z,88.32
2022-11-09T04:39:59.417Z,88.40
2022-11-09T04:43:04.451Z,88.71
2022-11-09T04:46:07.234Z,88.58
2022-11-09T04:49:10.154Z,88.94
2022-11-09T04:52:13.101Z,88.98
2022-11-09T04:55:15.922Z,89.16
2022-11-09T04:58:23.751Z,88.29
2022-11-09T05:01:27.625Z,88.93
2022-11-09T05:04:30.381Z,89.33
2022-11-09T05:07:33.193Z,89.58
2022-11-09T05:10:36.399Z,89.72
2022-11-09T05:13:39.165Z,89.87
2022-11-09T05:16:42.072Z,89.80
2022-11-09T05:19:44.896Z,89.80
2022-11-09T05:23:06.367Z,89.80
2022-11-09T05:26:09.154Z,89.77
2022-11-09T05:29:13.229Z,89.84
2022-11-09T05:32:15.970Z,89.96
2022-11-09T05:35:18.781Z,89.87
2022-11-09T05:38:22.319Z,89.77
2022-11-09T05:41:25.245Z,90.10
2022-11-09T05:44:27.999Z,90.40
2022-11-09T05:47:30.886Z,90.01
2022-11-09T05:50:33.806Z,90.39
2022-11-09T05:53:46.757Z,90.18
2022-11-09T05:56:50.337Z,90.53
2022-11-09T05:59:53.199Z,90.98
2022-11-09T06:03:06.375Z,91.10
2022-11-09T06:06:10.593Z,91.37
2022-11-09T06:09:13.398Z,90.92
2022-11-09T06:12:16.398Z,90.48
2022-11-09T06:15:19.132Z,90.44
2022-11-09T06:18:23.363Z,90.27
2022-11-09T06:21:26.146Z,90.61
2022-11-09T06:24:29.015Z,89.94
2022-11-09T06:27:31.903Z,89.34
2022-11-09T06:30:34.652Z,89.20
2022-11-09T06:33:41.338Z,89.39
2022-11-09T06:36:45.150Z,89.22
2022-11-09T06:39:48.397Z,89.13
2022-11-09T06:42:51.587Z,89.35
2022-11-09T06:45:54.938Z,89.14
2022-11-09T06:48:57.679Z,88.62
2022-11-09T06:52:00.471Z,88.66
2022-11-09T06:55:03.366Z,88.36
2022-11-09T06:58:12.032Z,88.55
2022-11-09T07:01:17.684Z,88.55
2022-11-09T07:04:20.450Z,88.61
2022-11-09T07:07:28.028Z,88.43
2022-11-09T07:10:31.182Z,88.46
2022-11-09T07:13:34.155Z,88.50
2022-11-09T07:16:37.570Z,88.20
2022-11-09T07:19:40.191Z,87.89
2022-11-09T07:22:42.961Z,87.33
2022-11-09T07:25:45.760Z,87.27
2022-11-09T07:28:48.492Z,86.76
2022-11-09T07:31:51.284Z,86.26
2022-11-09T07:34:54.046Z,85.39
2022-11-09T07:38:01.676Z,85.86
2022-11-09T07:41:04.964Z,85.86
2022-11-09T07:44:07.851Z,86.06
2022-11-09T07:47:17.180Z,85.76
2022-11-09T07:50:20.935Z,85.22
2022-11-09T07:53:23.936Z,85.27
2022-11-09T07:56:26.871Z,85.37
2022-11-09T07:59:29.670Z,85.12
2022-11-09T08:02:32.408Z,84.90
2022-11-09T08:05:36.307Z,84.96
2022-11-09T08:08:38.771Z,85.18
2022-11-09T08:11:41.867Z,85.22
2022-11-09T08:14:44.385Z,85.61
2022-11-09T08:17:47.431Z,86.01
2022-11-09T08:20:50.235Z,86.15
2022-11-09T08:23:53.262Z,86.46
2022-11-09T08:26:55.919Z,86.62
2022-11-09T08:29:58.794Z,86.67
2022-11-09T08:33:03.818Z,86.77
2022-11-09T08:36:18.062Z,87.19
2022-11-09T08:39:23.133Z,87.38
2022-11-09T08:42:28.379Z,87.47
2022-11-09T08:45:34.170Z,87.59
2022-11-09T08:48:37.246Z,87.88
2022-11-09T08:51:39.732Z,87.64
2022-11-09T08:54:43.025Z,87.62
2022-11-09T08:57:45.603Z,87.55
2022-11-09T09:00:49.071Z,87.71
2022-11-09T09:03:51.508Z,87.74
2022-11-09T09:06:54.674Z,87.71
2022-11-09T09:09:57.337Z,87.80
2022-11-09T09:13:00.437Z,87.83
2022-11-09T09:16:11.891Z,87.88
2022-11-09T09:19:14.933Z,87.69
2022-11-09T09:22:17.543Z,87.79
2022-11-09T09:25:20.720Z,87.54
2022-11-09T09:28:23.444Z,87.55
2022-11-09T09:31:29.512Z,87.81
2022-11-09T09:34:31.908Z,87.54
2022-11-09T09:37:35.148Z,87.65
2022-11-09T09:41:07.337Z,87.67
2022-11-09T09:44:34.814Z,87.59
2022-11-09T09:48:09.655Z,87.69
2022-11-09T09:51:37.841Z,87.09
2022-11-09T09:54:44.373Z,87.08
2022-11-09T09:57:53.379Z,87.22
2022-11-09T10:01:11.007Z,87.38
2022-11-09T10:04:34.693Z,87.15
2022-11-09T10:07:40.671Z,87.27
2022-11-09T10:11:04.693Z,86.85
2022-11-09T10:14:49.053Z,86.85
2022-11-09T10:18:15.473Z,87.00
2022-11-09T10:21:53.408Z,86.89
2022-11-09T10:25:23.726Z,86.72
2022-11-09T10:29:01.633Z,86.86
2022-11-09T10:32:10.020Z,87.05
2022-11-09T10:35:20.949Z,87.01
2022-11-09T10:38:40.985Z,86.68
2022-11-09T10:42:02.155Z,86.28
2022-11-09T10:45:34.882Z,86.44
2022-11-09T10:48:56.291Z,86.06
2022-11-09T10:52:47.260Z,86.33
2022-11-09T10:56:21.229Z,86.38
2022-11-09T10:59:50.939Z,85.96
2022-11-09T11:03:18.719Z,86.15
2022-11-09T11:06:40.625Z,86.26
2022-11-09T11:10:18.752Z,86.23
2022-11-09T11:13:40.621Z,86.30
2022-11-09T11:17:02.351Z,86.57
2022-11-09T11:20:32.796Z,86.43
2022-11-09T11:24:15.731Z,86.69
2022-11-09T11:27:43.731Z,86.83
2022-11-09T11:31:07.805Z,86.98
2022-11-09T11:34:58.120Z,87.18
2022-11-09T11:38:22.656Z,87.44
2022-11-09T11:42:03.892Z,87.44
2022-11-09T11:45:41.211Z,87.75
2022-11-09T11:49:38.212Z,87.90
2022-11-09T11:53:09.196Z,88.02
2022-11-09T11:56:31.086Z,88.00
2022-11-09T11:59:58.128Z,88.14
2022-11-09T12:03:50.542Z,88.00
2022-11-09T12:07:35.889Z,88.07
2022-11-09T12:11:15.834Z,87.94
2022-11-09T12:14:52.095Z,88.34
2022-11-09T12:18:42.377Z,88.04
2022-11-09T12:22:18.130Z,87.87
2022-11-09T12:26:14.440Z,87.94
2022-11-09T12:30:15.257Z,87.99
2022-11-09T12:33:51.147Z,87.96
2022-11-09T12:37:20.304Z,88.02
2022-11-09T12:40:52.122Z,88.02
2022-11-09T12:44:26.340Z,88.23
2022-11-09T12:47:47.877Z,87.96
2022-11-09T12:51:09.773Z,88.31
2022-11-09T12:54:33.581Z,88.27
2022-11-09T12:58:00.538Z,88.29
2022-11-09T13:01:34.234Z,88.33
2022-11-09T13:05:29.724Z,88.14
2022-11-09T13:09:08.205Z,88.41
2022-11-09T13:12:39.220Z,88.52
2022-11-09T13:16:33.644Z,88.65
2022-11-09T13:19:57.465Z,88.51
2022-11-09T13:24:06.864Z,88.74
2022-11-09T13:27:47.050Z,89.01
2022-11-09T13:31:11.188Z,88.88
2022-11-09T13:34:48.866Z,89.42
2022-11-09T13:38:23.748Z,89.97
2022-11-09T13:41:44.948Z,89.83
2022-11-09T13:45:37.440Z,89.94
2022-11-09T13:48:58.944Z,89.96
2022-11-09T13:52:49.627Z,90.28
2022-11-09T13:56:13.722Z,89.87
2022-11-09T13:59:43.069Z,89.75
2022-11-09T14:03:27.935Z,90.16
2022-11-09T14:06:50.387Z,90.21
2022-11-09T14:10:28.972Z,90.27
2022-11-09T14:14:09.602Z,89.74
2022-11-09T14:17:58.162Z,89.44
2022-11-09T14:21:46.519Z,89.78
2022-11-09T14:25:23.801Z,89.83
2022-11-09T14:28:47.616Z,89.82
2022-11-09T14:32:39.439Z,90.19
2022-11-09T14:36:04.340Z,90.27
2022-11-09T14:39:27.745Z,90.47
2022-11-09T14:42:51.902Z,90.92
2022-11-09T14:46:20.906Z,90.57
2022-11-09T14:49:42.633Z,90.75
2022-11-09T14:53:07.799Z,90.96
2022-11-09T14:56:31.011Z,90.89
2022-11-09T14:59:52.262Z,90.96
2022-11-09T15:03:22.659Z,90.79
2022-11-09T15:06:57.112Z,90.75
2022-11-09T15:10:20.403Z,90.78
2022-11-09T15:13:41.931Z,90.63
2022-11-09T15:17:05.945Z,90.46
2022-11-09T15:20:29.146Z,90.16
2022-11-09T15:24:08.263Z,89.62
2022-11-09T15:27:35.376Z,90.08
2022-11-09T15:30:59.263Z,90.22
2022-11-09T15:34:27.778Z,90.35
2022-11-09T15:37:52.035Z,90.48
2022-11-09T15:41:14.192Z,90.64
2022-11-09T15:44:37.496Z,90.82
2022-11-09T15:47:58.680Z,91.11
2022-11-09T15:51:20.659Z,90.94
2022-11-09T15:54:46.536Z,91.14
2022-11-09T15:58:14.124Z,91.27
2022-11-09T16:01:35.184Z,91.41
2022-11-09T16:04:56.564Z,91.27
2022-11-09T16:08:17.535Z,91.74
2022-11-09T16:11:39.171Z,91.72
2022-11-09T16:15:00.253Z,91.70
2022-11-09T16:18:25.947Z,91.44
2022-11-09T16:21:47.612Z,91.82
2022-11-09T16:25:09.753Z,91.44
2022-11-09T16:28:30.918Z,91.25
2022-11-09T16:31:52.783Z,91.05
2022-11-09T16:35:29.431Z,90.98
2022-11-09T16:38:54.306Z,90.80
2022-11-09T16:42:17.200Z,91.06
2022-11-09T16:45:46.150Z,91.11
2022-11-09T16:49:07.159Z,91.00
2022-11-09T16:52:29.024Z,90.87
2022-11-09T16:55:50.121Z,91.23
2022-11-09T16:59:11.390Z,91.19
2022-11-09T17:02:32.855Z,91.17
2022-11-09T17:05:59.147Z,91.09
2022-11-09T17:09:20.949Z,90.86
2022-11-09T17:12:42.347Z,91.11
2022-11-09T17:16:06.473Z,91.15
2022-11-09T17:19:33.001Z,91.04
2022-11-09T17:22:54.294Z,91.04
2022-11-09T17:26:15.375Z,91.10
2022-11-09T17:29:37.852Z,90.98
2022-11-09T17:32:59.429Z,90.79
2022-11-09T17:36:41.517Z,90.86
2022-11-09T17:40:01.398Z,90.69
2022-11-09T17:43:22.435Z,90.70
2022-11-09T17:46:43.790Z,90.73
2022-11-09T17:50:05.548Z,90.76
2022-11-09T17:53:27.644Z,90.81
2022-11-09T17:56:48.499Z,90.93
2022-11-09T18:00:10.910Z,90.80
2022-11-09T18:03:34.135Z,90.32
2022-11-09T18:06:55.341Z,90.46
2022-11-09T18:10:16.557Z,90.88
2022-11-09T18:13:38.425Z,90.67
2022-11-09T18:17:01.263Z,90.51
2022-11-09T18:20:23.029Z,90.48
2022-11-09T18:23:45.813Z,90.44
2022-11-09T18:27:07.073Z,90.17
2022-11-09T18:30:28.317Z,90.51
2022-11-09T18:33:50.210Z,90.29
2022-11-09T18:37:11.007Z,89.99
2022-11-09T18:40:32.702Z,90.09
2022-11-09T18:43:54.152Z,90.12
2022-11-09T18:47:15.586Z,90.28
2022-11-09T18:50:37.786Z,89.83
2022-11-09T18:53:58.814Z,90.08
2022-11-09T18:57:20.224Z,90.18
2022-11-09T19:00:43.795Z,89.91
2022-11-09T19:04:05.178Z,89.32
2022-11-09T19:07:26.418Z,89.46
2022-11-09T19:10:47.472Z,89.79
2022-11-09T19:14:10.489Z,89.55
2022-11-09T19:17:31.412Z,89.22
2022-11-09T19:20:52.898Z,89.64
2022-11-09T19:24:16.258Z,89.86
2022-11-09T19:27:37.500Z,89.58
2022-11-09T19:30:58.461Z,89.50
2022-11-09T19:34:21.409Z,89.75
2022-11-09T19:37:42.262Z,89.36
2022-11-09T19:41:04.100Z,89.23
2022-11-09T19:44:24.830Z,89.40
2022-11-09T19:47:49.155Z,89.47
2022-11-09T19:51:10.102Z,89.21
2022-11-09T19:54:31.214Z,89.21
2022-11-09T19:57:52.662Z,89.12
2022-11-09T20:01:14.108Z,89.18
2022-11-09T20:04:35.441Z,88.57
2022-11-09T20:07:56.712Z,89.10
2022-11-09T20:11:37.762Z,89.33
2022-11-09T20:14:59.319Z,89.49
2022-11-09T20:18:23.547Z,89.24
2022-11-09T20:21:44.997Z,88.93
2022-11-09T20:25:06.315Z,89.16
2022-11-09T20:28:27.769Z,89.42
2022-11-09T20:31:48.758Z,89.39
2022-11-09T20:35:10.078Z,89.44
2022-11-09T20:38:31.727Z,88.85
2022-11-09T20:41:53.033Z,89.19
2022-11-09T20:45:15.587Z,89.35
2022-11-09T20:48:55.031Z,89.56
2022-11-09T20:52:16.542Z,89.28
2022-11-09T20:55:39.683Z,88.96
2022-11-09T20:59:00.802Z,89.50
2022-11-09T21:02:21.818Z,89.52
2022-11-09T21:05:46.517Z,89.48
2022-11-09T21:09:10.740Z,89.49
2022-11-09T21:12:31.948Z,89.62
2022-11-09T21:15:53.270Z,89.69
2022-11-09T21:19:14.491Z,89.76
2022-11-09T21:22:54.871Z,89.67
2022-11-09T21:26:34.415Z,89.61
2022-11-09T21:29:56.673Z,89.64
2022-11-09T21:33:18.075Z,89.47
2022-11-09T21:36:42.754Z,89.23
2022-11-09T21:40:04.244Z,89.24
2022-11-09T21:43:25.654Z,89.34
2022-11-09T21:46:46.750Z,89.48
2022-11-09T21:50:12.610Z,89.62
2022-11-09T21:53:37.066Z,89.06
2022-11-09T21:56:58.225Z,89.45
2022-11-09T22:00:19.408Z,89.38
2022-11-09T22:03:41.657Z,89.11
2022-11-09T22:07:02.596Z,88.94
2022-11-09T22:10:24.102Z,89.38
2022-11-09T22:14:03.814Z,89.53
2022-11-09T22:17:25.251Z,89.60
2022-11-09T22:20:55.074Z,89.75
2022-11-09T22:24:18.491Z,89.88
2022-11-09T22:27:39.446Z,89.57
2022-11-09T22:31:05.269Z,89.63
2022-11-09T22:34:26.160Z,89.12
2022-11-09T22:37:47.364Z,89.40
2022-11-09T22:41:11.982Z,89.48
2022-11-09T22:44:33.163Z,89.90
2022-11-09T22:47:54.196Z,89.98
2022-11-09T22:51:17.062Z,89.66
2022-11-09T22:54:38.218Z,89.55
2022-11-09T22:57:59.507Z,89.86
2022-11-09T23:01:21.211Z,90.13
2022-11-09T23:04:42.692Z,90.07
2022-11-09T23:08:03.719Z,89.68
2022-11-09T23:11:25.221Z,89.75
2022-11-09T23:15:08.847Z,89.31
2022-11-09T23:18:48.642Z,89.81
2022-11-09T23:22:09.294Z,89.58
2022-11-09T23:25:49.172Z,89.97
2022-11-09T23:29:09.987Z,90.29
2022-11-09T23:32:31.159Z,90.42
2022-11-09T23:35:52.533Z,90.22
2022-11-09T23:39:13.698Z,90.16
2022-11-09T23:42:34.812Z,89.94
2022-11-09T23:45:58.252Z,90.04
2022-11-09T23:49:19.405Z,90.05
2022-11-09T23:52:40.463Z,90.08
2022-11-09T23:56:03.939Z,90.15
2022-11-09T23:59:25.023Z,90.14
